createdAt,value
2018-11-20T00:01:48.876Z,0.20
2018-11-20T00:07:11.923Z,0.20
2018-11-20T00:10:49.783Z,0.20
2018-11-20T00:13:28.787Z,0.20
2018-11-20T00:16:03.984Z,0.10
2018-11-20T00:18:38.964Z,0.10
2018-11-20T00:21:13.682Z,0.20
2018-11-20T00:23:47.982Z,0.20
2018-11-20T00:26:28.662Z,0.20
2018-11-20T00:29:08.723Z,0.20
2018-11-20T00:39:12.594Z,0.10
2018-11-20T00:41:49.054Z,0.20
2018-11-20T00:44:26.324Z,0.10
2018-11-20T00:47:01.504Z,0.10
2018-11-20T00:49:38.534Z,0.00
2018-11-20T00:53:19.564Z,0.00
2018-11-20T00:56:05.105Z,0.10
2018-11-20T00:58:42.775Z,0.10
2018-11-20T01:01:17.984Z,0.00
2018-11-20T01:03:56.549Z,0.10
2018-11-20T01:06:36.035Z,0.10
2018-11-20T01:09:21.974Z,0.10
2018-11-20T01:12:07.415Z,0.10
2018-11-20T01:14:47.244Z,0.10
2018-11-20T01:17:32.005Z,0.00
2018-11-20T01:20:07.694Z,0.10
2018-11-20T01:22:42.907Z,0.00
2018-11-20T01:25:25.924Z,0.10
2018-11-20T01:28:12.684Z,0.10
2018-11-20T01:30:54.735Z,0.10
2018-11-20T01:34:35.465Z,0.10
2018-11-20T01:37:11.725Z,0.10
2018-11-20T01:40:54.405Z,0.10
2018-11-20T01:43:34.406Z,0.10
2018-11-20T01:47:27.229Z,0.10
2018-11-20T01:50:24.986Z,0.10
2018-11-20T01:53:13.775Z,0.10
2018-11-20T01:56:02.906Z,0.00
2018-11-20T01:58:50.865Z,0.00
2018-11-20T02:01:38.364Z,0.00
2018-11-20T02:04:34.185Z,0.00
2018-11-20T02:07:22.886Z,0.00
2018-11-20T02:10:11.745Z,0.00
2018-11-20T02:13:06.095Z,0.00
2018-11-20T02:16:12.908Z,0.00
2018-11-20T02:19:01.235Z,0.00
2018-11-20T02:21:41.724Z,0.00
2018-11-20T02:24:30.384Z,-0.10
2018-11-20T02:27:19.737Z,-0.10
2018-11-20T02:30:23.686Z,-0.10
2018-11-20T02:33:24.385Z,-0.10
2018-11-20T02:36:13.445Z,-0.10
2018-11-20T02:39:05.904Z,-0.20
2018-11-20T02:41:54.716Z,-0.20
2018-11-20T02:44:41.905Z,-0.20
2018-11-20T02:47:35.445Z,-0.10
2018-11-20T02:50:22.785Z,-0.10
2018-11-20T02:53:25.155Z,-0.10
2018-11-20T02:56:14.626Z,-0.20
2018-11-20T02:59:06.425Z,-0.10
2018-11-20T03:01:55.165Z,-0.10
2018-11-20T03:04:48.774Z,-0.10
2018-11-20T03:07:29.332Z,-0.10
2018-11-20T03:10:18.426Z,-0.10
2018-11-20T03:13:08.755Z,-0.10
2018-11-20T03:16:00.245Z,-0.10
2018-11-20T03:18:49.235Z,-0.10
2018-11-20T03:21:41.575Z,-0.10
2018-11-20T03:24:29.134Z,-0.10
2018-11-20T03:27:24.286Z,-0.20
2018-11-20T03:30:47.725Z,-0.10
2018-11-20T03:33:34.278Z,-0.10
2018-11-20T03:36:38.475Z,-0.10
2018-11-20T03:39:20.726Z,-0.10
2018-11-20T03:42:24.575Z,-0.10
2018-11-20T03:45:27.896Z,-0.10
2018-11-20T03:48:20.056Z,-0.10
2018-11-20T03:51:07.725Z,0.00
2018-11-20T03:53:55.175Z,-0.10
2018-11-20T03:56:42.615Z,0.00
2018-11-20T03:59:32.855Z,0.00
2018-11-20T04:02:21.215Z,0.00
2018-11-20T04:05:14.245Z,0.00
2018-11-20T04:13:54.886Z,0.00
2018-11-20T04:16:35.986Z,0.00
2018-11-20T04:19:23.265Z,0.00
2018-11-20T04:22:11.685Z,0.00
2018-11-20T04:25:09.996Z,0.00
2018-11-20T04:27:58.066Z,0.00
2018-11-20T04:31:16.115Z,0.00
2018-11-20T04:34:05.196Z,0.00
2018-11-20T04:37:00.126Z,0.00
2018-11-20T04:39:48.694Z,0.00
2018-11-20T04:42:42.525Z,0.00
2018-11-20T04:45:36.146Z,0.00
2018-11-20T04:48:28.095Z,0.00
2018-11-20T04:51:18.015Z,0.00
2018-11-20T04:54:21.336Z,0.00
2018-11-20T05:00:18.974Z,0.00
2018-11-20T05:03:09.502Z,0.00
2018-11-20T05:06:03.105Z,0.00
2018-11-20T05:08:46.168Z,0.00
2018-11-20T05:11:35.346Z,0.00
2018-11-20T05:14:18.005Z,0.00
2018-11-20T05:17:12.467Z,0.00
2018-11-20T05:20:08.675Z,0.00
2018-11-20T05:23:05.045Z,0.00
2018-11-20T05:26:13.305Z,0.00
2018-11-20T05:29:10.585Z,0.00
2018-11-20T05:32:03.329Z,0.00
2018-11-20T05:35:12.346Z,0.00
2018-11-20T05:38:02.255Z,0.10
2018-11-20T05:41:01.806Z,0.10
2018-11-20T05:43:54.355Z,0.10
2018-11-20T05:46:35.348Z,0.10
2018-11-20T05:49:34.286Z,0.10
2018-11-20T05:52:41.315Z,0.20
2018-11-20T05:55:23.705Z,0.20
2018-11-20T05:58:19.345Z,0.20
2018-11-20T06:01:06.408Z,0.20
2018-11-20T06:04:01.144Z,0.20
2018-11-20T06:06:53.646Z,0.20
2018-11-20T06:10:00.817Z,0.20
2018-11-20T06:13:02.106Z,0.20
2018-11-20T06:15:58.745Z,0.20
2018-11-20T06:18:47.615Z,0.20
2018-11-20T06:21:29.114Z,0.20
2018-11-20T06:24:23.572Z,0.20
2018-11-20T06:27:22.275Z,0.20
2018-11-20T06:30:13.937Z,0.20
2018-11-20T06:33:01.823Z,0.20
2018-11-20T06:35:49.249Z,0.20
2018-11-20T06:38:40.641Z,0.20
2018-11-20T06:41:39.095Z,0.20
2018-11-20T06:44:27.656Z,0.20
2018-11-20T06:47:22.997Z,0.30
2018-11-20T06:50:10.249Z,0.30
2018-11-20T06:52:56.054Z,0.20
2018-11-20T06:55:44.765Z,0.20
2018-11-20T06:58:42.385Z,0.30
2018-11-20T07:01:30.073Z,0.20
2018-11-20T07:04:18.125Z,0.20
2018-11-20T07:07:04.192Z,0.20
2018-11-20T07:09:41.134Z,0.20
2018-11-20T07:12:32.748Z,0.20
2018-11-20T07:15:20.411Z,0.20
2018-11-20T07:18:09.375Z,0.20
2018-11-20T07:20:58.145Z,0.20
2018-11-20T07:23:35.236Z,0.20
2018-11-20T07:26:36.025Z,0.30
2018-11-20T07:29:23.432Z,0.30
2018-11-20T07:32:20.845Z,0.30
2018-11-20T07:35:07.755Z,0.30
2018-11-20T07:38:02.235Z,0.30
2018-11-20T07:40:48.435Z,0.30
2018-11-20T07:43:40.877Z,0.30
2018-11-20T07:46:37.486Z,0.30
2018-11-20T07:49:29.095Z,0.30
2018-11-20T07:52:16.694Z,0.30
2018-11-20T07:55:05.054Z,0.30
2018-11-20T07:58:03.535Z,0.30
2018-11-20T08:00:56.354Z,0.30
2018-11-20T08:03:54.764Z,0.30
2018-11-20T08:07:07.014Z,0.30
2018-11-20T08:09:59.995Z,0.30
2018-11-20T08:12:53.304Z,0.30
2018-11-20T08:15:44.839Z,0.30
2018-11-20T08:18:30.833Z,0.30
2018-11-20T08:21:19.475Z,0.40
2018-11-20T08:24:09.645Z,0.40
2018-11-20T08:27:04.341Z,0.40
2018-11-20T08:30:02.345Z,0.40
2018-11-20T08:32:56.912Z,0.40
2018-11-20T08:35:43.757Z,0.40
2018-11-20T08:38:31.105Z,0.40
2018-11-20T08:41:18.583Z,0.40
2018-11-20T08:44:13.439Z,0.40
2018-11-20T08:46:49.659Z,0.40
2018-11-20T08:49:38.100Z,0.40
2018-11-20T08:52:25.823Z,0.40
2018-11-20T08:58:09.083Z,0.50
2018-11-20T09:01:00.212Z,0.50
2018-11-20T09:03:53.675Z,0.50
2018-11-20T09:06:40.769Z,0.50
2018-11-20T09:09:44.844Z,0.50
2018-11-20T09:12:50.520Z,0.50
2018-11-20T09:15:37.604Z,0.50
2018-11-20T09:18:28.625Z,0.50
2018-11-20T09:24:09.545Z,0.50
2018-11-20T09:27:06.875Z,0.50
2018-11-20T09:29:56.075Z,0.50
2018-11-20T09:32:43.766Z,0.50
2018-11-20T09:35:40.446Z,0.50
2018-11-20T09:38:25.235Z,0.50
2018-11-20T09:41:14.345Z,0.60
2018-11-20T09:44:08.215Z,0.60
2018-11-20T09:47:10.506Z,0.70
2018-11-20T09:50:07.938Z,0.90
2018-11-20T09:52:55.898Z,1.10
2018-11-20T09:55:45.566Z,1.30
2018-11-20T09:58:40.176Z,1.50
2018-11-20T10:01:28.454Z,1.80
2018-11-20T10:04:29.365Z,2.00
2018-11-20T10:07:16.858Z,2.20
2018-11-20T10:10:14.475Z,2.40
2018-11-20T10:13:10.904Z,2.40
2018-11-20T10:15:59.856Z,2.40
2018-11-20T10:18:40.105Z,2.40
2018-11-20T10:21:28.769Z,2.50
2018-11-20T10:24:17.365Z,2.50
2018-11-20T10:27:04.925Z,2.50
2018-11-20T10:30:00.695Z,2.50
2018-11-20T10:32:59.895Z,2.50
2018-11-20T10:35:47.414Z,2.50
2018-11-20T10:38:43.835Z,2.50
2018-11-20T10:41:38.015Z,2.50
2018-11-20T10:44:26.924Z,2.60
2018-11-20T10:47:14.185Z,2.60
2018-11-20T10:50:12.705Z,2.50
2018-11-20T10:53:08.955Z,2.50
2018-11-20T10:56:00.635Z,2.40
2018-11-20T10:58:48.027Z,2.40
2018-11-20T11:01:36.969Z,2.30
2018-11-20T11:04:26.310Z,2.30
2018-11-20T11:06:56.814Z,2.30
2018-11-20T11:09:47.793Z,2.40
2018-11-20T11:12:35.055Z,2.30
2018-11-20T11:15:32.537Z,2.30
2018-11-20T11:18:31.880Z,2.30
2018-11-20T11:21:19.546Z,2.20
2018-11-20T11:24:04.687Z,2.20
2018-11-20T11:26:54.757Z,2.20
2018-11-20T11:29:42.188Z,2.10
2018-11-20T11:32:36.687Z,2.00
2018-11-20T11:35:24.825Z,2.00
2018-11-20T11:38:19.187Z,1.90
2018-11-20T11:41:08.007Z,1.90
2018-11-20T11:44:01.858Z,1.90
2018-11-20T11:47:02.247Z,1.90
2018-11-20T11:49:55.846Z,1.80
2018-11-20T11:52:47.967Z,1.90
2018-11-20T11:55:42.822Z,1.80
2018-11-20T11:58:49.736Z,1.70
2018-11-20T12:04:24.676Z,1.60
2018-11-20T12:07:16.447Z,1.60
2018-11-20T12:10:11.323Z,1.60
2018-11-20T12:13:05.603Z,1.60
2018-11-20T12:15:58.037Z,1.60
2018-11-20T12:18:49.649Z,1.70
2018-11-20T12:21:37.016Z,1.70
2018-11-20T12:24:24.647Z,1.70
2018-11-20T12:27:20.333Z,1.70
2018-11-20T12:30:10.803Z,1.70
2018-11-20T12:32:58.206Z,1.60
2018-11-20T12:35:54.602Z,1.60
2018-11-20T12:38:51.797Z,1.60
2018-11-20T12:41:50.538Z,1.50
2018-11-20T12:44:51.236Z,1.50
2018-11-20T12:47:40.529Z,1.50
2018-11-20T12:50:36.707Z,1.50
2018-11-20T12:53:24.592Z,1.50
2018-11-20T12:56:13.913Z,1.50
2018-11-20T12:58:54.756Z,1.50
2018-11-20T13:02:08.046Z,1.50
2018-11-20T13:05:05.267Z,1.50
2018-11-20T13:07:55.986Z,1.50
2018-11-20T13:10:48.575Z,1.50
2018-11-20T13:13:47.997Z,1.50
2018-11-20T13:16:38.697Z,1.30
2018-11-20T13:19:27.415Z,1.30
2018-11-20T13:22:13.758Z,1.30
2018-11-20T13:25:14.800Z,1.40
2018-11-20T13:28:03.910Z,1.30
2018-11-20T13:30:55.847Z,1.30
2018-11-20T13:33:53.612Z,1.20
2018-11-20T13:37:03.688Z,1.20
2018-11-20T13:40:07.700Z,1.20
2018-11-20T13:42:51.840Z,1.20
2018-11-20T13:45:43.814Z,1.20
2018-11-20T13:48:45.303Z,1.20
2018-11-20T13:51:35.776Z,1.10
2018-11-20T13:54:23.357Z,1.10
2018-11-20T13:57:14.946Z,1.10
2018-11-20T14:00:04.197Z,1.20
2018-11-20T14:03:05.244Z,1.20
2018-11-20T14:06:04.987Z,1.20
2018-11-20T14:09:08.727Z,1.20
2018-11-20T14:11:57.028Z,1.20
2018-11-20T14:14:34.426Z,1.20
2018-11-20T14:17:32.186Z,1.20
2018-11-20T14:20:23.516Z,1.30
2018-11-20T14:23:17.906Z,1.20
2018-11-20T14:26:05.623Z,1.30
2018-11-20T14:29:05.867Z,1.20
2018-11-20T14:32:05.137Z,1.20
2018-11-20T14:34:50.672Z,1.10
2018-11-20T14:37:34.317Z,1.10
2018-11-20T14:40:30.521Z,1.10
2018-11-20T14:43:13.096Z,1.10
2018-11-20T14:46:03.607Z,1.10
2018-11-20T14:48:51.057Z,1.10
2018-11-20T14:51:39.716Z,1.10
2018-11-20T14:54:35.027Z,1.10
2018-11-20T14:57:22.718Z,1.00
2018-11-20T15:00:17.155Z,1.00
2018-11-20T15:03:18.338Z,1.10
2018-11-20T15:06:07.506Z,1.20
2018-11-20T15:08:56.051Z,1.20
2018-11-20T15:11:48.431Z,1.10
2018-11-20T15:14:46.857Z,1.00
2018-11-20T15:17:37.591Z,1.10
2018-11-20T15:20:34.946Z,1.00
2018-11-20T15:23:23.587Z,1.00
2018-11-20T15:26:11.737Z,1.00
2018-11-20T15:29:00.125Z,1.00
2018-11-20T15:31:53.797Z,1.00
2018-11-20T15:34:47.012Z,0.90
2018-11-20T15:37:32.326Z,0.90
2018-11-20T15:40:11.127Z,1.00
2018-11-20T15:42:59.056Z,1.00
2018-11-20T15:45:42.176Z,1.00
2018-11-20T15:48:31.718Z,1.00
2018-11-20T15:51:21.630Z,1.00
2018-11-20T15:54:10.576Z,1.00
2018-11-20T15:56:58.239Z,1.00
2018-11-20T15:59:47.460Z,0.90
2018-11-20T16:02:37.747Z,0.90
2018-11-20T16:05:33.387Z,0.90
2018-11-20T16:08:21.957Z,0.90
2018-11-20T16:11:10.981Z,0.80
2018-11-20T16:14:02.408Z,0.70
2018-11-20T16:17:16.912Z,0.70
2018-11-20T16:20:01.153Z,0.70
2018-11-20T16:22:50.016Z,0.70
2018-11-20T16:25:37.477Z,0.70
2018-11-20T16:28:24.906Z,0.70
2018-11-20T16:31:25.270Z,0.70
2018-11-20T16:34:14.336Z,0.70
2018-11-20T16:37:02.970Z,0.60
2018-11-20T16:40:03.007Z,0.70
2018-11-20T16:42:50.366Z,0.70
2018-11-20T16:45:50.116Z,0.70
2018-11-20T16:48:44.546Z,0.70
2018-11-20T16:51:31.967Z,0.80
2018-11-20T16:54:17.098Z,0.70
2018-11-20T16:57:18.278Z,0.70
2018-11-20T17:00:11.040Z,0.70
2018-11-20T17:02:50.688Z,0.60
2018-11-20T17:05:40.786Z,0.60
2018-11-20T17:11:22.956Z,0.60
2018-11-20T17:14:10.766Z,0.60
2018-11-20T17:17:14.871Z,0.60
2018-11-20T17:20:12.756Z,0.60
2018-11-20T17:23:16.177Z,0.70
2018-11-20T17:26:03.907Z,0.70
2018-11-20T17:29:01.416Z,0.70
2018-11-20T17:31:49.108Z,0.60
2018-11-20T17:34:36.568Z,0.70
2018-11-20T17:37:37.398Z,0.60
2018-11-20T17:40:20.946Z,0.60
2018-11-20T17:43:10.166Z,0.70
2018-11-20T17:45:48.688Z,0.60
2018-11-20T17:48:35.777Z,0.60
2018-11-20T17:51:26.678Z,0.60
2018-11-20T17:54:18.156Z,0.70
2018-11-20T17:57:10.105Z,0.60
2018-11-20T17:59:59.028Z,0.60
2018-11-20T18:03:06.997Z,0.60
2018-11-20T18:05:56.019Z,0.60
2018-11-20T18:08:42.917Z,0.60
2018-11-20T18:11:31.946Z,0.60
2018-11-20T18:14:14.646Z,0.60
2018-11-20T18:16:56.593Z,0.60
2018-11-20T18:19:44.076Z,0.70
2018-11-20T18:22:29.487Z,0.70
2018-11-20T18:25:24.516Z,0.70
2018-11-20T18:28:31.607Z,0.70
2018-11-20T18:31:56.058Z,0.70
2018-11-20T18:34:43.827Z,0.80
2018-11-20T18:37:34.838Z,0.70
2018-11-20T18:40:28.246Z,0.70
2018-11-20T18:43:20.007Z,0.70
2018-11-20T18:46:09.485Z,0.70
2018-11-20T18:48:56.316Z,0.80
2018-11-20T18:51:49.307Z,0.80
2018-11-20T18:54:49.850Z,0.80
2018-11-20T18:57:47.179Z,0.80
2018-11-20T19:00:49.615Z,0.80
2018-11-20T19:03:36.520Z,0.80
2018-11-20T19:06:27.790Z,0.80
2018-11-20T19:09:16.175Z,0.80
2018-11-20T19:12:21.516Z,0.80
2018-11-20T19:15:28.451Z,0.80
2018-11-20T19:18:21.562Z,0.80
2018-11-20T19:21:09.774Z,0.90
